createdAt,value
2017-11-22T00:00:54.502Z,98.17
2017-11-22T00:01:54.409Z,98.07
2017-11-22T00:02:54.417Z,97.88
2017-11-22T00:03:54.397Z,97.69
2017-11-22T00:04:54.386Z,98.17
2017-11-22T00:05:54.392Z,98.26
2017-11-22T00:06:54.391Z,97.69
2017-11-22T00:07:54.286Z,97.69
2017-11-22T00:08:54.311Z,97.41
2017-11-22T00:09:54.264Z,98.17
2017-11-22T00:10:54.270Z,98.45
2017-11-22T00:11:54.229Z,97.50
2017-11-22T00:12:54.242Z,97.69
2017-11-22T00:13:54.177Z,97.69
2017-11-22T00:14:54.192Z,97.78
2017-11-22T00:15:54.156Z,97.60
2017-11-22T00:16:57.739Z,98.64
2017-11-22T00:17:54.105Z,97.22
2017-11-22T00:18:54.109Z,97.97
2017-11-22T00:19:54.037Z,97.60
2017-11-22T00:20:54.049Z,97.31
2017-11-22T00:21:53.993Z,97.60
2017-11-22T00:22:53.974Z,97.31
2017-11-22T00:23:53.979Z,97.31
2017-11-22T00:24:53.959Z,96.93
2017-11-22T00:25:53.922Z,97.78
2017-11-22T00:26:53.913Z,97.78
2017-11-22T00:27:53.931Z,97.60
2017-11-22T00:28:53.999Z,97.50
2017-11-22T00:29:53.963Z,97.12
2017-11-22T00:30:53.836Z,96.93
2017-11-22T00:31:53.850Z,96.08
2017-11-22T00:32:53.798Z,96.17
2017-11-22T00:33:53.787Z,96.45
2017-11-22T00:34:53.801Z,96.74
2017-11-22T00:35:53.714Z,96.36
2017-11-22T00:36:53.716Z,96.08
2017-11-22T00:37:53.700Z,96.74
2017-11-22T00:38:53.679Z,96.45
2017-11-22T00:39:53.611Z,95.98
2017-11-22T00:40:53.607Z,95.60
2017-11-22T00:41:53.541Z,95.51
2017-11-22T00:42:53.526Z,94.56
2017-11-22T00:43:53.521Z,95.32
2017-11-22T00:44:53.538Z,95.70
2017-11-22T00:45:53.482Z,95.60
2017-11-22T00:46:53.447Z,95.98
2017-11-22T00:47:53.449Z,96.36
2017-11-22T00:48:53.413Z,95.60
2017-11-22T00:49:53.368Z,95.79
2017-11-22T00:50:53.365Z,96.08
2017-11-22T00:51:53.356Z,96.17
2017-11-22T00:52:53.380Z,95.51
2017-11-22T00:53:53.271Z,95.51
2017-11-22T00:54:56.223Z,95.32
2017-11-22T00:55:53.268Z,95.51
2017-11-22T00:56:53.266Z,95.32
2017-11-22T00:57:53.276Z,95.12
2017-11-22T00:58:53.225Z,95.22
2017-11-22T00:59:53.144Z,95.41
2017-11-22T01:00:53.196Z,95.60
2017-11-22T01:01:53.147Z,95.60
2017-11-22T01:02:53.121Z,96.36
2017-11-22T01:03:53.090Z,96.55
2017-11-22T01:04:53.094Z,96.26
2017-11-22T01:05:53.027Z,96.55
2017-11-22T01:06:52.994Z,96.45
2017-11-22T01:07:52.994Z,96.93
2017-11-22T01:08:52.982Z,96.84
2017-11-22T01:09:52.962Z,96.84
2017-11-22T01:10:52.975Z,97.41
2017-11-22T01:11:52.902Z,97.31
2017-11-22T01:12:52.884Z,97.03
2017-11-22T01:13:52.889Z,97.78
2017-11-22T01:14:52.851Z,97.69
2017-11-22T01:15:52.827Z,97.41
2017-11-22T01:16:52.809Z,97.03
2017-11-22T01:17:52.758Z,96.65
2017-11-22T01:18:52.762Z,96.36
2017-11-22T01:19:52.751Z,95.70
2017-11-22T01:20:52.723Z,95.32
2017-11-22T01:21:52.695Z,95.79
2017-11-22T01:22:52.668Z,96.65
2017-11-22T01:23:52.689Z,96.36
2017-11-22T01:24:52.600Z,96.74
2017-11-22T01:25:52.606Z,97.03
2017-11-22T01:26:52.589Z,96.55
2017-11-22T01:27:52.548Z,96.93
2017-11-22T01:28:52.522Z,96.84
2017-11-22T01:29:52.527Z,97.03
2017-11-22T01:30:52.494Z,96.93
2017-11-22T01:31:52.468Z,96.93
2017-11-22T01:32:52.472Z,96.74
2017-11-22T01:33:52.516Z,96.84
2017-11-22T01:34:52.426Z,97.31
2017-11-22T01:35:52.373Z,97.31
2017-11-22T01:36:52.357Z,97.78
2017-11-22T01:37:52.330Z,97.69
2017-11-22T01:38:52.292Z,97.31
2017-11-22T01:39:52.316Z,96.45
2017-11-22T01:40:52.255Z,96.36
2017-11-22T01:41:52.253Z,95.98
2017-11-22T01:42:52.241Z,95.79
2017-11-22T01:43:52.221Z,96.74
2017-11-22T01:44:52.188Z,96.36
2017-11-22T01:45:52.153Z,95.60
2017-11-22T01:46:52.174Z,95.41
2017-11-22T01:47:52.169Z,95.22
2017-11-22T01:48:52.160Z,95.03
2017-11-22T01:49:52.091Z,95.51
2017-11-22T01:50:52.128Z,96.08
2017-11-22T01:51:53.735Z,95.89
2017-11-22T01:52:52.050Z,95.70
2017-11-22T01:53:51.990Z,95.60
2017-11-22T01:54:51.996Z,95.79
2017-11-22T01:55:51.995Z,95.98
2017-11-22T01:56:51.929Z,95.60
2017-11-22T01:57:51.965Z,95.32
2017-11-22T01:58:51.881Z,95.41
2017-11-22T01:59:51.884Z,95.79
2017-11-22T02:00:51.850Z,95.79
2017-11-22T02:01:51.848Z,95.22
2017-11-22T02:02:51.810Z,95.89
2017-11-22T02:03:51.803Z,96.17
2017-11-22T02:04:51.743Z,95.70
2017-11-22T02:05:51.713Z,95.22
2017-11-22T02:06:51.714Z,95.55
2017-11-22T02:07:51.704Z,95.70
2017-11-22T02:08:51.680Z,95.84
2017-11-22T02:09:51.651Z,96.08
2017-11-22T02:10:51.633Z,95.70
2017-11-22T02:11:51.596Z,95.55
2017-11-22T02:12:51.659Z,95.51
2017-11-22T02:13:51.613Z,96.41
2017-11-22T02:14:51.523Z,95.98
2017-11-22T02:15:51.567Z,95.60
2017-11-22T02:16:51.488Z,95.89
2017-11-22T02:17:51.497Z,96.45
2017-11-22T02:18:51.471Z,96.08
2017-11-22T02:19:51.412Z,96.36
2017-11-22T02:20:51.439Z,96.36
2017-11-22T02:21:51.381Z,96.26
2017-11-22T02:22:51.347Z,96.26
2017-11-22T02:23:51.335Z,95.79
2017-11-22T02:24:51.326Z,95.70
2017-11-22T02:25:51.278Z,95.79
2017-11-22T02:26:51.275Z,96.45
2017-11-22T02:27:51.272Z,96.36
2017-11-22T02:28:51.239Z,96.93
2017-11-22T02:29:51.247Z,96.79
2017-11-22T02:30:51.173Z,96.93
2017-11-22T02:31:51.167Z,97.41
2017-11-22T02:32:51.153Z,96.36
2017-11-22T02:33:51.171Z,96.26
2017-11-22T02:34:51.111Z,96.45
2017-11-22T02:35:51.062Z,95.60
2017-11-22T02:36:51.078Z,95.60
2017-11-22T02:37:51.052Z,95.94
2017-11-22T02:38:51.003Z,95.84
2017-11-22T02:39:51.748Z,95.70
2017-11-22T02:40:50.953Z,95.75
2017-11-22T02:41:50.967Z,96.08
2017-11-22T02:42:50.933Z,95.32
2017-11-22T02:43:50.896Z,95.51
2017-11-22T02:44:50.903Z,95.98
2017-11-22T02:45:53.777Z,96.08
2017-11-22T02:46:50.816Z,95.98
2017-11-22T02:47:50.822Z,95.41
2017-11-22T02:48:50.781Z,95.41
2017-11-22T02:49:50.802Z,95.89
2017-11-22T02:50:50.779Z,96.45
2017-11-22T02:51:50.728Z,96.26
2017-11-22T02:52:50.707Z,96.36
2017-11-22T02:53:50.729Z,96.08
2017-11-22T02:54:50.654Z,96.45
2017-11-22T02:55:50.701Z,95.70
2017-11-22T02:56:50.646Z,96.08
2017-11-22T02:57:50.654Z,96.08
2017-11-22T02:58:50.554Z,95.22
2017-11-22T02:59:51.301Z,95.12
2017-11-22T03:00:50.548Z,95.89
2017-11-22T03:01:50.494Z,95.89
2017-11-22T03:02:50.502Z,95.79
2017-11-22T03:03:50.473Z,95.70
2017-11-22T03:04:50.447Z,95.41
2017-11-22T03:05:50.462Z,94.93
2017-11-22T03:06:54.249Z,94.84
2017-11-22T03:07:50.393Z,94.27
2017-11-22T03:08:50.353Z,94.93
2017-11-22T03:09:50.356Z,94.65
2017-11-22T03:10:50.359Z,94.46
2017-11-22T03:11:50.369Z,94.84
2017-11-22T03:12:50.262Z,95.03
2017-11-22T03:13:50.251Z,95.32
2017-11-22T03:14:50.235Z,95.12
2017-11-22T03:15:50.187Z,95.12
2017-11-22T03:16:50.250Z,94.56
2017-11-22T03:17:50.220Z,94.56
2017-11-22T03:18:50.192Z,94.46
2017-11-22T03:19:50.101Z,94.56
2017-11-22T03:20:50.151Z,94.93
2017-11-22T03:21:50.089Z,94.56
2017-11-22T03:22:50.042Z,94.84
2017-11-22T03:23:50.041Z,94.74
2017-11-22T03:24:50.064Z,95.32
2017-11-22T03:25:50.043Z,95.60
2017-11-22T03:26:50.001Z,95.51
2017-11-22T03:27:49.981Z,95.79
2017-11-22T03:28:49.955Z,95.98
2017-11-22T03:29:49.880Z,95.70
2017-11-22T03:30:49.867Z,96.08
2017-11-22T03:31:49.851Z,96.17
2017-11-22T03:32:49.869Z,95.70
2017-11-22T03:33:49.804Z,94.93
2017-11-22T03:34:49.773Z,95.22
2017-11-22T03:35:49.786Z,95.70
2017-11-22T03:36:49.796Z,94.93
2017-11-22T03:37:49.739Z,95.32
2017-11-22T03:38:49.700Z,94.65
2017-11-22T03:39:49.710Z,94.93
2017-11-22T03:40:49.675Z,94.56
2017-11-22T03:41:49.626Z,95.51
2017-11-22T03:42:49.681Z,95.22
2017-11-22T03:43:49.634Z,95.32
2017-11-22T03:44:49.568Z,94.93
2017-11-22T03:45:49.539Z,94.93
2017-11-22T03:46:49.609Z,95.32
2017-11-22T03:47:49.552Z,95.22
2017-11-22T03:48:49.492Z,95.22
2017-11-22T03:49:49.455Z,95.41
2017-11-22T03:50:49.429Z,95.51
2017-11-22T03:51:49.402Z,95.79
2017-11-22T03:52:49.393Z,95.98
2017-11-22T03:53:49.377Z,95.79
2017-11-22T03:54:49.375Z,95.89
2017-11-22T03:55:49.321Z,95.89
2017-11-22T03:56:49.317Z,95.70
2017-11-22T03:57:49.314Z,95.41
2017-11-22T03:58:49.286Z,95.51
2017-11-22T03:59:49.247Z,95.22
2017-11-22T04:00:49.305Z,94.93
2017-11-22T04:01:49.194Z,94.93
2017-11-22T04:02:49.194Z,95.41
2017-11-22T04:03:49.185Z,95.12
2017-11-22T04:04:49.126Z,95.32
2017-11-22T04:05:49.159Z,95.22
2017-11-22T04:06:49.083Z,95.22
2017-11-22T04:07:49.066Z,95.22
2017-11-22T04:08:49.061Z,95.22
2017-11-22T04:09:49.026Z,95.60
2017-11-22T04:10:49.056Z,95.70
2017-11-22T04:11:48.996Z,94.84
2017-11-22T04:12:49.005Z,94.65
2017-11-22T04:13:48.987Z,94.65
2017-11-22T04:14:48.923Z,95.03
2017-11-22T04:15:48.926Z,95.03
2017-11-22T04:16:48.901Z,95.03
2017-11-22T04:17:48.851Z,95.79
2017-11-22T04:18:48.850Z,95.22
2017-11-22T04:19:48.852Z,95.12
2017-11-22T04:20:48.811Z,94.74
2017-11-22T04:21:48.813Z,94.56
2017-11-22T04:22:48.781Z,95.41
2017-11-22T04:23:48.761Z,95.12
2017-11-22T04:24:48.771Z,94.93
2017-11-22T04:25:48.706Z,95.22
2017-11-22T04:26:48.661Z,95.79
2017-11-22T04:27:48.636Z,94.74
2017-11-22T04:28:48.600Z,94.93
2017-11-22T04:29:48.639Z,95.70
2017-11-22T04:30:48.642Z,95.79
2017-11-22T04:31:48.598Z,95.22
2017-11-22T04:32:48.561Z,94.37
2017-11-22T04:33:48.522Z,94.84
2017-11-22T04:34:48.528Z,94.65
2017-11-22T04:35:48.473Z,95.22
2017-11-22T04:36:48.449Z,95.22
2017-11-22T04:37:52.884Z,95.22
2017-11-22T04:38:48.384Z,95.03
2017-11-22T04:39:48.371Z,94.93
2017-11-22T04:40:48.397Z,94.93
2017-11-22T04:41:48.367Z,95.51
2017-11-22T04:42:48.346Z,95.51
2017-11-22T04:43:48.312Z,94.46
2017-11-22T04:44:48.344Z,94.84
2017-11-22T04:45:49.453Z,95.41
2017-11-22T04:46:48.263Z,95.12
2017-11-22T04:47:48.374Z,94.27
2017-11-22T04:48:48.249Z,94.65
2017-11-22T04:49:48.185Z,94.74
2017-11-22T04:50:48.131Z,94.56
2017-11-22T04:51:49.655Z,94.65
2017-11-22T04:52:48.340Z,94.65
2017-11-22T04:53:49.851Z,94.56
2017-11-22T04:54:49.712Z,94.93
2017-11-22T04:55:55.110Z,94.37
2017-11-22T04:56:48.430Z,94.65
2017-11-22T04:57:48.020Z,94.74
2017-11-22T04:58:50.572Z,95.12
2017-11-22T04:59:48.105Z,95.12
2017-11-22T05:00:47.959Z,95.12
2017-11-22T05:01:47.920Z,95.03
2017-11-22T05:02:47.910Z,94.56
2017-11-22T05:03:50.826Z,94.56
2017-11-22T05:04:47.945Z,94.93
2017-11-22T05:05:47.925Z,95.22
2017-11-22T05:06:47.816Z,95.03
2017-11-22T05:07:47.817Z,94.65
2017-11-22T05:08:47.768Z,94.56
2017-11-22T05:09:47.812Z,94.84
2017-11-22T05:10:47.749Z,95.12
2017-11-22T05:11:47.795Z,95.22
2017-11-22T05:12:47.766Z,95.51
2017-11-22T05:13:47.843Z,96.08
2017-11-22T05:14:47.640Z,96.65
2017-11-22T05:15:47.634Z,96.45
2017-11-22T05:16:47.610Z,96.36
2017-11-22T05:17:47.564Z,96.26
2017-11-22T05:18:47.539Z,96.26
2017-11-22T05:19:47.497Z,96.36
2017-11-22T05:20:47.499Z,96.36
2017-11-22T05:21:47.441Z,96.26
2017-11-22T05:22:47.452Z,96.65
2017-11-22T05:23:47.419Z,97.03
2017-11-22T05:24:47.413Z,96.55
2017-11-22T05:25:47.409Z,96.26
2017-11-22T05:26:47.358Z,96.36
2017-11-22T05:27:47.359Z,96.36
2017-11-22T05:28:47.317Z,96.55
2017-11-22T05:29:47.329Z,96.36
2017-11-22T05:30:47.261Z,96.45
2017-11-22T05:31:47.250Z,96.74
2017-11-22T05:32:47.251Z,97.41
2017-11-22T05:33:47.209Z,97.22
2017-11-22T05:34:47.171Z,97.12
2017-11-22T05:35:47.182Z,97.31
2017-11-22T05:36:49.754Z,97.12
2017-11-22T05:37:47.154Z,97.03
2017-11-22T05:38:47.103Z,97.88
2017-11-22T05:39:47.066Z,97.69
2017-11-22T05:40:47.040Z,97.03
2017-11-22T05:41:47.027Z,95.79
2017-11-22T05:42:47.020Z,96.45
2017-11-22T05:43:46.980Z,96.36
2017-11-22T05:44:46.978Z,96.74
2017-11-22T05:45:46.922Z,96.84
2017-11-22T05:46:46.918Z,97.31
2017-11-22T05:47:46.882Z,97.31
2017-11-22T05:48:46.874Z,97.31
2017-11-22T05:49:46.861Z,96.93
2017-11-22T05:50:46.822Z,96.84
2017-11-22T05:51:46.816Z,97.12
2017-11-22T05:52:46.806Z,97.31
2017-11-22T05:53:46.765Z,97.31
2017-11-22T05:54:47.296Z,97.60
2017-11-22T05:55:46.712Z,97.31
2017-11-22T05:56:46.706Z,97.60
2017-11-22T05:57:46.669Z,97.60
2017-11-22T05:58:46.679Z,97.88
2017-11-22T05:59:46.628Z,97.60
2017-11-22T06:00:46.622Z,97.60
2017-11-22T06:01:46.576Z,97.78
2017-11-22T06:02:46.575Z,97.88
2017-11-22T06:03:48.272Z,97.78
2017-11-22T06:04:46.546Z,97.69
2017-11-22T06:05:51.296Z,98.17
2017-11-22T06:06:46.501Z,98.17
2017-11-22T06:07:46.474Z,97.69
2017-11-22T06:08:46.470Z,98.36
2017-11-22T06:09:46.408Z,98.36
2017-11-22T06:10:46.416Z,98.55
2017-11-22T06:11:46.374Z,98.17
2017-11-22T06:12:46.350Z,98.07
2017-11-22T06:13:46.346Z,98.17
2017-11-22T06:14:46.337Z,98.07
2017-11-22T06:15:46.268Z,98.17
2017-11-22T06:16:46.302Z,98.45
2017-11-22T06:17:46.242Z,98.26
2017-11-22T06:18:46.224Z,98.64
2017-11-22T06:19:46.217Z,98.45
2017-11-22T06:20:46.164Z,98.36
2017-11-22T06:21:46.163Z,98.36
2017-11-22T06:22:48.780Z,97.88
2017-11-22T06:23:46.115Z,98.36
2017-11-22T06:24:46.109Z,98.17
2017-11-22T06:25:46.823Z,98.17
2017-11-22T06:26:46.075Z,98.55
2017-11-22T06:27:48.790Z,98.36
2017-11-22T06:28:48.787Z,98.07
2017-11-22T06:29:46.016Z,98.17
2017-11-22T06:30:48.787Z,98.45
2017-11-22T06:31:45.968Z,98.17
2017-11-22T06:32:45.919Z,97.78
2017-11-22T06:33:45.885Z,98.07
2017-11-22T06:34:46.000Z,97.88
2017-11-22T06:35:45.852Z,97.78
2017-11-22T06:36:45.865Z,98.17
2017-11-22T06:37:45.828Z,98.17
2017-11-22T06:38:45.782Z,98.64
2017-11-22T06:39:45.783Z,98.36
2017-11-22T06:40:45.730Z,98.74
2017-11-22T06:41:45.721Z,97.97
2017-11-22T06:42:45.705Z,97.97
2017-11-22T06:43:45.700Z,97.78
2017-11-22T06:44:48.283Z,97.88
2017-11-22T06:45:45.626Z,98.45
2017-11-22T06:46:45.610Z,98.45
2017-11-22T06:47:45.614Z,98.36
2017-11-22T06:48:45.559Z,98.55
2017-11-22T06:49:45.575Z,98.45
2017-11-22T06:50:45.554Z,98.26
2017-11-22T06:51:45.520Z,98.74
2017-11-22T06:52:45.485Z,98.55
2017-11-22T06:53:48.340Z,98.74
2017-11-22T06:54:45.445Z,98.55
2017-11-22T06:55:45.408Z,98.17
2017-11-22T06:56:45.425Z,98.26
2017-11-22T06:57:45.408Z,97.69
2017-11-22T06:58:45.360Z,98.17
2017-11-22T06:59:45.343Z,98.36
2017-11-22T07:00:45.307Z,97.88
2017-11-22T07:01:48.301Z,98.07
2017-11-22T07:02:45.265Z,97.60
2017-11-22T07:03:47.810Z,97.88
2017-11-22T07:04:45.225Z,97.78
2017-11-22T07:05:45.210Z,97.97
2017-11-22T07:06:46.796Z,97.31
2017-11-22T07:08:07.813Z,97.41
2017-11-22T07:08:48.779Z,97.31
2017-11-22T07:09:47.798Z,97.31
2017-11-22T07:10:45.089Z,97.12
2017-11-22T07:11:45.094Z,97.12
2017-11-22T07:12:45.049Z,96.36
2017-11-22T07:13:47.839Z,95.41
2017-11-22T07:14:45.000Z,94.65
2017-11-22T07:15:45.011Z,94.18
2017-11-22T07:16:45.007Z,93.89
2017-11-22T07:17:47.794Z,94.22
2017-11-22T07:18:44.928Z,94.22
2017-11-22T07:19:44.907Z,94.22
2017-11-22T07:20:48.811Z,94.60
2017-11-22T07:21:44.874Z,94.22
2017-11-22T07:22:44.871Z,94.89
2017-11-22T07:23:48.883Z,94.70
2017-11-22T07:24:44.815Z,94.42
2017-11-22T07:25:45.311Z,94.60
2017-11-22T07:26:47.331Z,94.51
2017-11-22T07:27:44.725Z,93.65
2017-11-22T07:28:44.736Z,93.08
2017-11-22T07:29:44.690Z,94.03
2017-11-22T07:30:44.678Z,94.03
2017-11-22T07:31:47.284Z,94.32
2017-11-22T07:32:44.646Z,94.32
2017-11-22T07:33:44.607Z,93.94
2017-11-22T07:34:44.625Z,94.03
2017-11-22T07:35:44.609Z,93.55
2017-11-22T07:36:44.559Z,93.84
2017-11-22T07:37:44.549Z,93.65
2017-11-22T07:38:47.379Z,94.42
2017-11-22T07:39:44.476Z,94.13
2017-11-22T07:40:44.488Z,93.65
2017-11-22T07:41:44.425Z,93.08
2017-11-22T07:42:44.436Z,92.99
2017-11-22T07:43:47.327Z,92.51
2017-11-22T07:44:44.411Z,92.41
2017-11-22T07:45:44.387Z,92.99
2017-11-22T07:46:44.327Z,92.89
2017-11-22T07:47:44.298Z,92.89
2017-11-22T07:48:44.315Z,92.80
2017-11-22T07:49:44.269Z,92.51
2017-11-22T07:50:44.257Z,92.03
2017-11-22T07:51:44.743Z,92.13
2017-11-22T07:52:44.256Z,93.08
2017-11-22T07:53:47.872Z,92.99
2017-11-22T07:54:44.208Z,92.99
2017-11-22T07:55:44.156Z,92.80
2017-11-22T07:56:47.840Z,92.41
2017-11-22T07:57:44.203Z,92.13
2017-11-22T07:58:44.172Z,92.03
2017-11-22T07:59:44.058Z,92.13
2017-11-22T08:00:44.501Z,92.13
2017-11-22T08:01:44.032Z,92.41
2017-11-22T08:02:44.091Z,92.51
2017-11-22T08:03:43.989Z,92.32
2017-11-22T08:04:43.956Z,92.51
2017-11-22T08:05:43.919Z,91.94
2017-11-22T08:06:43.905Z,92.03
2017-11-22T08:07:43.889Z,92.61
2017-11-22T08:08:43.845Z,92.41
2017-11-22T08:09:43.874Z,92.32
2017-11-22T08:10:43.812Z,92.70
2017-11-22T08:11:43.789Z,93.08
2017-11-22T08:12:43.778Z,93.08
2017-11-22T08:13:43.763Z,92.99
2017-11-22T08:14:43.849Z,93.18
2017-11-22T08:15:43.739Z,93.08
2017-11-22T08:16:43.669Z,92.22
2017-11-22T08:17:43.660Z,92.13
2017-11-22T08:18:43.630Z,92.13
2017-11-22T08:19:43.613Z,91.94
2017-11-22T08:20:43.767Z,92.03
2017-11-22T08:21:43.615Z,92.51
2017-11-22T08:22:46.318Z,92.51
2017-11-22T08:23:43.522Z,92.32
2017-11-22T08:24:43.519Z,92.41
2017-11-22T08:25:43.608Z,92.03
2017-11-22T08:26:43.533Z,92.13
2017-11-22T08:27:43.528Z,92.32
2017-11-22T08:28:43.419Z,92.41
2017-11-22T08:29:43.406Z,92.32
2017-11-22T08:30:43.413Z,92.13
2017-11-22T08:31:43.401Z,91.61
2017-11-22T08:32:43.368Z,92.36
2017-11-22T08:33:45.333Z,92.03
2017-11-22T08:34:43.301Z,92.32
2017-11-22T08:35:43.271Z,91.70
2017-11-22T08:36:43.261Z,91.80
2017-11-22T08:37:43.244Z,92.36
2017-11-22T08:38:43.218Z,91.80
2017-11-22T08:39:43.190Z,91.70
2017-11-22T08:40:43.179Z,91.42
2017-11-22T08:41:43.135Z,91.32
2017-11-22T08:42:44.814Z,91.94
2017-11-22T08:43:43.097Z,91.99
2017-11-22T08:44:45.862Z,91.61
2017-11-22T08:45:43.057Z,91.61
2017-11-22T08:46:43.830Z,91.70
2017-11-22T08:47:43.043Z,92.08
2017-11-22T08:48:43.042Z,91.89
2017-11-22T08:49:42.986Z,91.70
2017-11-22T08:50:42.960Z,91.42
2017-11-22T08:51:42.991Z,91.70
2017-11-22T08:52:42.929Z,91.61
2017-11-22T08:53:42.933Z,91.51
2017-11-22T08:54:42.878Z,91.80
2017-11-22T08:55:42.851Z,91.80
2017-11-22T08:56:43.125Z,91.80
2017-11-22T08:57:42.852Z,91.51
2017-11-22T08:58:43.103Z,91.32
2017-11-22T08:59:42.763Z,91.22
2017-11-22T09:00:42.770Z,90.75
2017-11-22T09:01:42.746Z,90.08
2017-11-22T09:02:42.783Z,90.28
2017-11-22T09:03:42.703Z,90.18
2017-11-22T09:04:42.714Z,90.56
2017-11-22T09:05:42.673Z,91.03
2017-11-22T09:06:42.611Z,91.61
2017-11-22T09:07:42.640Z,91.61
2017-11-22T09:08:42.613Z,90.66
2017-11-22T09:09:42.584Z,90.18
2017-11-22T09:10:42.529Z,89.70
2017-11-22T09:11:42.524Z,90.28
2017-11-22T09:12:46.398Z,90.66
2017-11-22T09:13:42.589Z,90.94
2017-11-22T09:14:44.350Z,91.03
2017-11-22T09:15:42.514Z,90.75
2017-11-22T09:16:42.447Z,90.84
2017-11-22T09:17:42.474Z,90.66
2017-11-22T09:18:42.540Z,90.66
2017-11-22T09:19:42.359Z,90.28
2017-11-22T09:20:45.856Z,90.28
2017-11-22T09:21:42.349Z,90.47
2017-11-22T09:22:42.315Z,90.47
2017-11-22T09:23:42.285Z,91.22
2017-11-22T09:24:42.253Z,90.56
2017-11-22T09:25:42.217Z,90.84
2017-11-22T09:26:42.227Z,90.47
2017-11-22T09:27:42.217Z,90.66
2017-11-22T09:28:42.219Z,90.56
2017-11-22T09:29:42.191Z,91.03
2017-11-22T09:30:42.184Z,90.94
2017-11-22T09:31:42.089Z,90.84
2017-11-22T09:32:42.178Z,90.56
2017-11-22T09:33:44.010Z,90.84
2017-11-22T09:34:44.012Z,90.94
2017-11-22T09:35:49.959Z,90.66
2017-11-22T09:36:42.129Z,90.37
2017-11-22T09:37:41.991Z,90.08
2017-11-22T09:38:41.960Z,89.14
2017-11-22T09:39:43.902Z,89.99
2017-11-22T09:40:41.896Z,89.70
2017-11-22T09:41:45.909Z,90.08
2017-11-22T09:42:42.013Z,89.89
2017-11-22T09:43:41.910Z,89.70
2017-11-22T09:44:41.940Z,89.42
2017-11-22T09:45:43.430Z,90.18
2017-11-22T09:46:41.971Z,89.51
2017-11-22T09:47:41.836Z,89.32
2017-11-22T09:48:41.928Z,89.37
2017-11-22T09:49:44.483Z,89.32
2017-11-22T09:50:41.702Z,88.94
2017-11-22T09:51:41.825Z,89.42
2017-11-22T09:52:41.653Z,89.89
2017-11-22T09:53:41.705Z,89.37
2017-11-22T09:54:45.268Z,88.85
2017-11-22T09:55:41.694Z,88.75
2017-11-22T09:56:41.618Z,88.94
2017-11-22T09:57:41.674Z,88.75
2017-11-22T09:58:41.685Z,88.75
2017-11-22T09:59:45.467Z,88.94
2017-11-22T10:00:41.736Z,88.18
2017-11-22T10:01:41.707Z,88.56
2017-11-22T10:02:45.463Z,88.56
2017-11-22T10:03:41.563Z,88.37
2017-11-22T10:04:41.657Z,88.18
2017-11-22T10:05:41.533Z,88.04
2017-11-22T10:06:42.458Z,87.99
2017-11-22T10:07:41.600Z,88.79
2017-11-22T10:08:43.956Z,88.99
2017-11-22T10:09:41.523Z,88.60
2017-11-22T10:10:41.466Z,88.23
2017-11-22T10:11:45.202Z,88.04
2017-11-22T10:12:41.479Z,88.32
2017-11-22T10:13:43.210Z,88.04
2017-11-22T10:14:41.390Z,87.46
2017-11-22T10:15:41.238Z,87.08
2017-11-22T10:16:41.216Z,86.90
2017-11-22T10:17:41.152Z,87.37
2017-11-22T10:18:43.960Z,86.70
2017-11-22T10:19:45.773Z,85.85
2017-11-22T10:20:45.201Z,86.51
2017-11-22T10:21:41.199Z,87.08
2017-11-22T10:22:44.317Z,87.08
2017-11-22T10:23:41.055Z,86.51
2017-11-22T10:24:44.166Z,85.66
2017-11-22T10:25:42.083Z,85.94
2017-11-22T10:26:44.002Z,86.04
2017-11-22T10:27:41.064Z,86.04
2017-11-22T10:28:40.999Z,86.27
2017-11-22T10:29:43.928Z,85.60
2017-11-22T10:30:41.088Z,84.75
2017-11-22T10:31:40.873Z,84.17
2017-11-22T10:32:40.885Z,84.65
2017-11-22T10:33:43.458Z,84.56
2017-11-22T10:34:40.927Z,84.08
2017-11-22T10:35:40.779Z,84.27
2017-11-22T10:36:40.881Z,85.03
2017-11-22T10:37:40.743Z,83.98
2017-11-22T10:38:40.774Z,83.80
2017-11-22T10:39:42.482Z,83.84
2017-11-22T10:40:40.824Z,83.93
2017-11-22T10:41:40.725Z,83.21
2017-11-22T10:42:40.630Z,83.21
2017-11-22T10:43:43.446Z,81.06
2017-11-22T10:44:40.586Z,79.72
2017-11-22T10:45:42.514Z,79.44
2017-11-22T10:46:40.588Z,78.96
2017-11-22T10:47:40.593Z,77.76
2017-11-22T10:48:40.533Z,75.37
2017-11-22T10:49:40.568Z,74.84
2017-11-22T10:50:40.579Z,73.41
2017-11-22T10:51:45.284Z,72.58
2017-11-22T10:52:40.511Z,72.39
2017-11-22T10:53:40.462Z,70.96
2017-11-22T10:54:40.418Z,71.00
2017-11-22T10:55:40.445Z,71.76
2017-11-22T10:56:40.350Z,72.81
2017-11-22T10:57:40.418Z,72.28
2017-11-22T10:58:40.336Z,71.45
2017-11-22T10:59:40.351Z,70.12
2017-11-22T11:00:40.281Z,68.05
2017-11-22T11:01:40.274Z,61.56
2017-11-22T11:02:40.270Z,59.00
2017-11-22T11:03:40.270Z,59.55
2017-11-22T11:04:40.280Z,59.52
2017-11-22T11:05:40.266Z,60.00
2017-11-22T11:06:40.242Z,59.77
2017-11-22T11:07:40.234Z,60.93
2017-11-22T11:08:40.239Z,61.11
2017-11-22T11:09:42.790Z,61.11
2017-11-22T11:10:40.147Z,60.44
2017-11-22T11:11:40.095Z,60.93
2017-11-22T11:12:40.115Z,60.19
2017-11-22T11:13:42.936Z,59.06
2017-11-22T11:14:40.109Z,59.48
2017-11-22T11:15:43.008Z,58.49
2017-11-22T11:16:40.081Z,58.69
2017-11-22T11:17:40.048Z,59.42
2017-11-22T11:18:40.016Z,59.11
2017-11-22T11:19:39.982Z,59.30
2017-11-22T11:20:40.085Z,60.22
2017-11-22T11:21:42.876Z,61.08
2017-11-22T11:22:39.913Z,62.71
2017-11-22T11:23:44.393Z,62.81
2017-11-22T11:24:39.865Z,62.90
2017-11-22T11:25:39.981Z,62.71
2017-11-22T11:26:39.894Z,61.76
2017-11-22T11:27:39.795Z,61.85
2017-11-22T11:28:39.884Z,61.69
2017-11-22T11:29:39.880Z,60.38
2017-11-22T11:30:42.449Z,59.36
2017-11-22T11:31:39.879Z,58.69
2017-11-22T11:32:42.380Z,58.81
2017-11-22T11:33:39.910Z,58.84
2017-11-22T11:34:39.819Z,56.27
2017-11-22T11:35:39.715Z,54.83
2017-11-22T11:36:39.795Z,54.64
2017-11-22T11:37:44.504Z,53.39
2017-11-22T11:38:39.662Z,53.01
2017-11-22T11:39:39.679Z,54.16
2017-11-22T11:40:39.660Z,54.55
2017-11-22T11:41:42.466Z,55.00
2017-11-22T11:42:39.668Z,55.89
2017-11-22T11:43:39.641Z,54.16
2017-11-22T11:44:39.614Z,53.66
2017-11-22T11:45:39.570Z,54.90
2017-11-22T11:46:39.689Z,55.38
2017-11-22T11:47:39.608Z,55.47
2017-11-22T11:48:39.542Z,55.02
2017-11-22T11:49:42.463Z,54.83
2017-11-22T11:50:39.510Z,53.78
2017-11-22T11:51:39.470Z,52.05
2017-11-22T11:52:39.480Z,52.26
2017-11-22T11:53:39.793Z,51.76
2017-11-22T11:54:41.463Z,51.57
2017-11-22T11:55:39.364Z,52.36
2017-11-22T11:56:39.394Z,51.69
2017-11-22T11:57:40.955Z,51.33
2017-11-22T11:58:41.081Z,51.81
2017-11-22T11:59:39.341Z,51.55
2017-11-22T12:00:39.498Z,50.59
2017-11-22T12:01:39.282Z,50.49
2017-11-22T12:02:39.273Z,50.68
2017-11-22T12:03:39.273Z,49.82
2017-11-22T12:04:42.889Z,48.57
2017-11-22T12:05:39.272Z,48.64
2017-11-22T12:06:39.318Z,49.00
2017-11-22T12:07:39.252Z,49.84
2017-11-22T12:08:39.256Z,51.76
2017-11-22T12:09:41.986Z,51.86
2017-11-22T12:10:39.292Z,51.93
2017-11-22T12:11:39.165Z,53.05
2017-11-22T12:12:39.183Z,53.60
2017-11-22T12:13:39.163Z,54.53
2017-11-22T12:14:39.135Z,55.97
2017-11-22T12:15:40.951Z,57.60
2017-11-22T12:16:39.116Z,57.98
2017-11-22T12:17:39.268Z,58.17
2017-11-22T12:18:39.075Z,58.08
2017-11-22T12:19:42.975Z,58.65
2017-11-22T12:20:39.811Z,57.76
2017-11-22T12:21:39.146Z,58.24
2017-11-22T12:22:39.062Z,58.79
2017-11-22T12:23:39.181Z,60.22
2017-11-22T12:24:39.037Z,61.72
2017-11-22T12:25:39.033Z,62.30
2017-11-22T12:26:39.137Z,62.11
2017-11-22T12:27:39.044Z,61.31
2017-11-22T12:28:38.966Z,61.79
2017-11-22T12:29:38.950Z,62.55
2017-11-22T12:30:38.996Z,64.25
2017-11-22T12:31:38.977Z,63.67
2017-11-22T12:32:42.538Z,63.86
2017-11-22T12:33:42.592Z,64.69
2017-11-22T12:34:38.931Z,65.36
2017-11-22T12:35:38.961Z,66.22
2017-11-22T12:36:40.626Z,66.70
2017-11-22T12:37:38.966Z,66.06
2017-11-22T12:38:38.825Z,65.97
2017-11-22T12:39:40.555Z,65.30
2017-11-22T12:40:38.731Z,65.77
2017-11-22T12:41:38.883Z,65.81
2017-11-22T12:42:38.674Z,64.47
2017-11-22T12:43:38.862Z,63.57
2017-11-22T12:44:38.659Z,64.62
2017-11-22T12:45:40.531Z,65.55
2017-11-22T12:46:41.552Z,66.22
2017-11-22T12:47:38.775Z,66.79
2017-11-22T12:48:38.664Z,67.43
2017-11-22T12:49:38.812Z,67.91
2017-11-22T12:50:38.621Z,68.38
2017-11-22T12:51:40.601Z,68.96
2017-11-22T12:52:41.550Z,68.41